createdAt,value
2023-05-21T00:04:05.378Z,1012.1
2023-05-21T00:10:11.656Z,1012
2023-05-21T00:16:17.300Z,1011.9
2023-05-21T00:22:22.674Z,1011.9
2023-05-21T00:28:28.786Z,1011.9
2023-05-21T00:34:34.015Z,1011.8
2023-05-21T00:40:39.748Z,1011.7
2023-05-21T00:46:45.708Z,1011.8
2023-05-21T00:52:51.128Z,1011.8
2023-05-21T00:58:56.256Z,1011.7
2023-05-21T01:05:02.502Z,1011.7
2023-05-21T01:11:08.210Z,1011.7
2023-05-21T01:17:14.464Z,1011.7
2023-05-21T01:23:20.214Z,1011.6
2023-05-21T01:29:25.818Z,1011.6
2023-05-21T01:35:31.313Z,1011.5
2023-05-21T01:41:37.510Z,1011.6
2023-05-21T01:47:43.308Z,1011.5
2023-05-21T01:53:48.502Z,1011.4
2023-05-21T01:59:55.044Z,1011.5
2023-05-21T02:06:01.025Z,1011.5
2023-05-21T02:12:06.669Z,1011.5
2023-05-21T02:18:15.297Z,1011.5
2023-05-21T02:24:20.839Z,1011.5
2023-05-21T02:30:26.053Z,1011.5
2023-05-21T02:36:32.189Z,1011.5
2023-05-21T02:42:38.202Z,1011.4
2023-05-21T02:48:43.944Z,1011.4
2023-05-21T02:54:50.542Z,1011.4
2023-05-21T03:00:56.234Z,1011.5
2023-05-21T03:07:02.714Z,1011.3
2023-05-21T03:13:11.046Z,1011.3
2023-05-21T03:19:17.021Z,1011.4
2023-05-21T03:25:22.483Z,1011.4
2023-05-21T03:31:28.469Z,1011.4
2023-05-21T03:37:34.325Z,1011.5
2023-05-21T03:43:39.839Z,1011.4
2023-05-21T03:49:45.825Z,1011.4
2023-05-21T03:55:51.425Z,1011.4
2023-05-21T04:01:57.580Z,1011.3
2023-05-21T04:08:04.168Z,1011.3
2023-05-21T04:14:09.740Z,1011.3
2023-05-21T04:20:15.927Z,1011.4
2023-05-21T04:26:21.913Z,1011.4
2023-05-21T04:32:27.891Z,1011.4
2023-05-21T04:38:33.726Z,1011.5
2023-05-21T04:44:40.090Z,1011.5
2023-05-21T04:50:46.106Z,1011.4
2023-05-21T04:56:51.814Z,1011.5
2023-05-21T05:02:57.538Z,1011.6
2023-05-21T05:09:03.051Z,1011.5
2023-05-21T05:15:08.738Z,1011.5
2023-05-21T05:21:14.552Z,1011.5
2023-05-21T05:27:19.971Z,1011.5
2023-05-21T05:33:25.273Z,1011.6
2023-05-21T05:39:31.246Z,1011.5
2023-05-21T05:45:36.901Z,1011.5
2023-05-21T05:51:43.529Z,1011.5
2023-05-21T05:57:49.625Z,1011.6
2023-05-21T06:03:55.838Z,1011.6
2023-05-21T06:10:01.456Z,1011.6
2023-05-21T06:16:07.372Z,1011.6
2023-05-21T06:22:12.908Z,1011.5
2023-05-21T06:28:18.542Z,1011.6
2023-05-21T06:34:24.524Z,1011.7
2023-05-21T06:40:30.135Z,1011.7
2023-05-21T06:46:35.942Z,1011.6
2023-05-21T06:52:42.618Z,1011.7
2023-05-21T06:58:47.460Z,1011.7
2023-05-21T07:04:52.959Z,1011.8
2023-05-21T07:10:58.861Z,1011.7
2023-05-21T07:17:04.773Z,1011.8
2023-05-21T07:23:10.947Z,1011.7
2023-05-21T07:29:16.468Z,1011.7
2023-05-21T07:35:22.697Z,1011.8
2023-05-21T07:41:28.647Z,1011.7
2023-05-21T07:47:34.664Z,1011.8
2023-05-21T07:53:40.604Z,1011.7
2023-05-21T07:59:46.607Z,1011.8
2023-05-21T08:05:52.786Z,1011.9
2023-05-21T08:11:58.972Z,1011.9
2023-05-21T08:18:03.835Z,1011.9
2023-05-21T08:24:09.503Z,1012
2023-05-21T08:30:15.313Z,1012
2023-05-21T08:36:20.224Z,1012
2023-05-21T08:42:37.653Z,1012
2023-05-21T08:48:43.873Z,1012
2023-05-21T08:54:49.295Z,1012
2023-05-21T09:00:55.269Z,1012
2023-05-21T09:07:01.253Z,1012.1
2023-05-21T09:13:06.565Z,1012.1
2023-05-21T09:19:12.603Z,1012.1
2023-05-21T09:25:18.325Z,1012.1
2023-05-21T09:31:23.974Z,1012.1
2023-05-21T09:37:29.712Z,1012.1
2023-05-21T09:43:35.506Z,1012.1
2023-05-21T09:49:41.493Z,1012
2023-05-21T09:55:47.269Z,1012
2023-05-21T10:01:53.193Z,1012
2023-05-21T10:07:58.651Z,1011.9
2023-05-21T10:14:04.149Z,1011.9
2023-05-21T10:20:10.130Z,1011.9
2023-05-21T10:26:15.555Z,1011.9
2023-05-21T10:32:21.730Z,1011.9
2023-05-21T10:38:27.732Z,1011.8
2023-05-21T10:44:33.227Z,1011.8
2023-05-21T10:50:39.498Z,1011.8
2023-05-21T10:56:45.407Z,1011.7
2023-05-21T11:02:51.332Z,1011.8
2023-05-21T11:08:57.578Z,1011.8
2023-05-21T11:15:03.405Z,1011.7
2023-05-21T11:21:08.927Z,1011.7
2023-05-21T11:27:14.923Z,1011.7
2023-05-21T11:33:20.522Z,1011.6
2023-05-21T11:39:26.658Z,1011.6
2023-05-21T11:45:32.245Z,1011.6
2023-05-21T11:51:38.628Z,1011.6
2023-05-21T11:57:44.233Z,1011.6
2023-05-21T12:03:50.648Z,1011.6
2023-05-21T12:09:56.590Z,1011.5
2023-05-21T12:16:03.988Z,1011.5
2023-05-21T12:22:11.722Z,1011.4
2023-05-21T12:28:17.210Z,1011.4
2023-05-21T12:34:23.218Z,1011.5
2023-05-21T12:40:28.741Z,1011.5
2023-05-21T12:46:34.806Z,1011.5
2023-05-21T12:52:40.304Z,1011.4
2023-05-21T12:58:46.079Z,1011.4
2023-05-21T13:04:51.558Z,1011.4
2023-05-21T13:10:57.428Z,1011.3
2023-05-21T13:17:03.117Z,1011.3
2023-05-21T13:23:11.771Z,1011.2
2023-05-21T13:29:17.237Z,1011.3
2023-05-21T13:35:22.884Z,1011.3
2023-05-21T13:41:28.363Z,1011.2
2023-05-21T13:47:34.430Z,1011.2
2023-05-21T13:53:44.280Z,1011.2
2023-05-21T13:59:50.424Z,1011.2
2023-05-21T14:05:56.077Z,1011.3
2023-05-21T14:12:01.833Z,1011.2
2023-05-21T14:18:09.824Z,1011.2
2023-05-21T14:24:15.428Z,1011.2
2023-05-21T14:30:20.394Z,1011.2
2023-05-21T14:36:25.884Z,1011.2
2023-05-21T14:42:32.483Z,1011.2
2023-05-21T14:48:37.861Z,1011.1
2023-05-21T14:54:43.913Z,1011.1
2023-05-21T15:00:49.215Z,1011
2023-05-21T15:06:54.765Z,1011.1
2023-05-21T15:13:00.254Z,1011.1
2023-05-21T15:19:05.979Z,1011
2023-05-21T15:25:11.750Z,1011
2023-05-21T15:31:17.890Z,1011
2023-05-21T15:37:23.341Z,1011
2023-05-21T15:43:29.035Z,1011
2023-05-21T15:49:34.455Z,1011
2023-05-21T15:55:40.600Z,1010.9
2023-05-21T16:01:46.038Z,1010.9
2023-05-21T16:07:51.555Z,1010.8
2023-05-21T16:13:57.526Z,1010.8
2023-05-21T16:20:03.304Z,1010.8
2023-05-21T16:26:08.665Z,1010.8
2023-05-21T16:32:14.350Z,1010.8
2023-05-21T16:38:20.223Z,1010.8
2023-05-21T16:44:26.067Z,1010.8
2023-05-21T16:50:31.977Z,1010.8
2023-05-21T16:56:37.406Z,1010.8
2023-05-21T17:02:43.135Z,1010.8
2023-05-21T17:08:48.960Z,1010.8
2023-05-21T17:14:54.284Z,1010.8
2023-05-21T17:21:00.166Z,1010.7
2023-05-21T17:27:06.046Z,1010.7
2023-05-21T17:33:12.146Z,1010.9
2023-05-21T17:39:17.656Z,1010.9
2023-05-21T17:45:23.559Z,1011
2023-05-21T17:51:28.411Z,1011
2023-05-21T17:57:34.095Z,1011.1
2023-05-21T18:03:39.565Z,1011.1
2023-05-21T18:09:44.881Z,1011.1
2023-05-21T18:15:50.623Z,1011.1
2023-05-21T18:21:55.970Z,1011.1
2023-05-21T18:28:01.763Z,1011.1
2023-05-21T18:34:07.630Z,1011.1
2023-05-21T18:40:13.529Z,1011.1
2023-05-21T18:46:19.458Z,1011.2
2023-05-21T18:52:24.880Z,1011.2
2023-05-21T18:58:30.518Z,1011.3
2023-05-21T19:04:35.831Z,1011.3
2023-05-21T19:10:42.468Z,1011.3
2023-05-21T19:16:48.212Z,1011.3
2023-05-21T19:22:54.226Z,1011.4
2023-05-21T19:29:00.162Z,1011.5
2023-05-21T19:35:06.334Z,1011.5
2023-05-21T19:41:11.768Z,1011.5
2023-05-21T19:47:17.908Z,1011.5
2023-05-21T19:53:23.144Z,1011.6
2023-05-21T19:59:28.647Z,1011.6
2023-05-21T20:05:34.897Z,1011.5
2023-05-21T20:11:39.996Z,1011.6
2023-05-21T20:17:45.796Z,1011.6
2023-05-21T20:23:51.967Z,1011.6
2023-05-21T20:29:58.207Z,1011.6
2023-05-21T20:36:03.509Z,1011.6
2023-05-21T20:42:09.514Z,1011.6
2023-05-21T20:48:15.734Z,1011.5
2023-05-21T20:54:20.725Z,1011.5
2023-05-21T21:00:26.599Z,1011.6
2023-05-21T21:06:32.467Z,1011.6
2023-05-21T21:12:38.367Z,1011.6
2023-05-21T21:18:44.151Z,1011.6
2023-05-21T21:24:49.930Z,1011.7
2023-05-21T21:30:55.561Z,1011.7
2023-05-21T21:37:01.715Z,1011.6
2023-05-21T21:43:07.271Z,1011.7
2023-05-21T21:49:12.653Z,1011.7
2023-05-21T21:55:18.809Z,1011.7
2023-05-21T22:01:24.160Z,1011.8
2023-05-21T22:07:30.177Z,1011.8
2023-05-21T22:13:35.652Z,1011.8
2023-05-21T22:19:41.139Z,1011.8
2023-05-21T22:25:47.209Z,1011.8
2023-05-21T22:31:53.077Z,1011.8
2023-05-21T22:37:58.901Z,1011.7
2023-05-21T22:44:04.100Z,1011.8
2023-05-21T22:50:10.239Z,1011.8
2023-05-21T22:56:15.664Z,1011.8
2023-05-21T23:02:21.585Z,1011.8
2023-05-21T23:08:27.636Z,1011.7
2023-05-21T23:14:33.748Z,1011.7
2023-05-21T23:20:39.973Z,1011.7
2023-05-21T23:26:46.707Z,1011.7
2023-05-21T23:32:52.391Z,1011.6
2023-05-21T23:38:58.266Z,1011.7
2023-05-21T23:45:03.867Z,1011.6
2023-05-21T23:51:09.494Z,1011.6
2023-05-21T23:57:15.217Z,1011.6
